createdAt,value
2019-04-07T00:02:01.822Z,99.90
2019-04-07T00:05:13.057Z,99.90
2019-04-07T00:08:14.513Z,99.90
2019-04-07T00:11:19.611Z,99.90
2019-04-07T00:14:24.826Z,99.90
2019-04-07T00:17:29.335Z,99.90
2019-04-07T00:20:33.838Z,99.90
2019-04-07T00:23:38.282Z,99.90
2019-04-07T00:26:43.026Z,99.90
2019-04-07T00:29:47.456Z,99.90
2019-04-07T00:32:52.023Z,99.90
2019-04-07T00:35:56.917Z,99.90
2019-04-07T00:39:01.597Z,99.90
2019-04-07T00:42:06.042Z,99.90
2019-04-07T00:45:11.525Z,99.90
2019-04-07T00:48:15.962Z,99.90
2019-04-07T00:51:20.696Z,99.90
2019-04-07T00:54:25.483Z,99.90
2019-04-07T00:57:30.321Z,99.90
2019-04-07T01:00:37.309Z,99.90
2019-04-07T01:03:42.305Z,99.90
2019-04-07T01:06:47.411Z,99.90
2019-04-07T01:09:51.800Z,99.90
2019-04-07T01:12:56.644Z,99.90
2019-04-07T01:16:01.381Z,99.90
2019-04-07T01:19:07.141Z,99.90
2019-04-07T01:22:11.831Z,99.90
2019-04-07T01:25:16.343Z,99.90
2019-04-07T01:28:21.028Z,99.90
2019-04-07T01:31:25.545Z,99.90
2019-04-07T01:34:30.416Z,99.90
2019-04-07T01:37:35.261Z,99.90
2019-04-07T01:40:40.152Z,99.90
2019-04-07T01:43:49.401Z,99.90
2019-04-07T01:46:55.962Z,99.90
2019-04-07T01:50:18.598Z,99.90
2019-04-07T01:53:27.978Z,99.90
2019-04-07T01:56:52.745Z,99.90
2019-04-07T02:00:13.866Z,99.90
2019-04-07T02:03:36.316Z,99.90
2019-04-07T02:06:42.391Z,99.90
2019-04-07T02:09:54.535Z,99.90
2019-04-07T02:13:01.117Z,99.90
2019-04-07T02:16:08.104Z,99.90
2019-04-07T02:19:12.658Z,99.90
2019-04-07T02:22:19.103Z,99.90
2019-04-07T02:25:25.232Z,99.90
2019-04-07T02:28:49.571Z,99.90
2019-04-07T02:31:55.937Z,99.90
2019-04-07T02:35:17.929Z,99.90
2019-04-07T02:38:27.449Z,99.90
2019-04-07T02:41:40.187Z,99.90
2019-04-07T02:44:52.569Z,99.90
2019-04-07T02:48:10.811Z,99.90
2019-04-07T02:51:32.174Z,99.90
2019-04-07T02:54:38.512Z,99.90
2019-04-07T02:57:47.820Z,99.90
2019-04-07T03:01:00.568Z,99.90
2019-04-07T03:04:22.955Z,99.90
2019-04-07T03:07:32.499Z,99.90
2019-04-07T03:10:38.796Z,99.90
2019-04-07T03:13:55.048Z,99.90
2019-04-07T03:17:17.128Z,99.90
2019-04-07T03:20:39.273Z,99.90
2019-04-07T03:23:48.656Z,99.90
2019-04-07T03:27:11.456Z,99.90
2019-04-07T03:30:22.419Z,99.90
2019-04-07T03:33:31.904Z,99.90
2019-04-07T03:37:15.156Z,99.90
2019-04-07T03:39:59.177Z,99.90
2019-04-07T03:43:09.469Z,99.90
2019-04-07T03:46:30.844Z,99.90
2019-04-07T03:49:36.923Z,99.90
2019-04-07T03:52:46.777Z,99.90
2019-04-07T03:56:02.064Z,99.90
2019-04-07T03:59:08.423Z,99.90
2019-04-07T04:02:14.794Z,99.90
2019-04-07T04:05:22.056Z,99.90
2019-04-07T04:08:45.666Z,99.90
2019-04-07T04:12:05.028Z,99.90
2019-04-07T04:15:15.073Z,99.90
2019-04-07T04:18:20.587Z,99.90
2019-04-07T04:21:25.949Z,99.90
2019-04-07T04:24:30.829Z,99.90
2019-04-07T04:27:35.433Z,99.90
2019-04-07T04:30:40.408Z,99.90
2019-04-07T04:33:44.811Z,99.90
2019-04-07T04:36:50.257Z,99.90
2019-04-07T04:39:55.777Z,99.90
2019-04-07T04:43:00.381Z,99.90
2019-04-07T04:46:08.638Z,99.90
2019-04-07T04:49:11.925Z,99.90
2019-04-07T04:52:17.586Z,99.90
2019-04-07T04:55:22.487Z,99.90
2019-04-07T04:58:27.081Z,99.90
2019-04-07T05:01:32.202Z,99.90
2019-04-07T05:04:37.358Z,99.90
2019-04-07T05:07:55.652Z,99.90
2019-04-07T05:10:48.331Z,99.90
2019-04-07T05:13:53.006Z,99.90
2019-04-07T05:16:57.489Z,99.90
2019-04-07T05:20:02.930Z,99.90
2019-04-07T05:23:07.834Z,99.90
2019-04-07T05:26:12.376Z,99.90
2019-04-07T05:29:17.133Z,99.90
2019-04-07T05:32:22.305Z,99.90
2019-04-07T05:35:27.504Z,99.90
2019-04-07T05:38:32.088Z,99.90
2019-04-07T05:41:37.208Z,99.90
2019-04-07T05:44:42.187Z,99.90
2019-04-07T05:47:48.682Z,99.90
2019-04-07T05:50:52.830Z,99.90
2019-04-07T05:53:57.264Z,99.90
2019-04-07T05:57:02.530Z,99.90
2019-04-07T06:00:15.656Z,99.90
2019-04-07T06:03:20.400Z,99.90
2019-04-07T06:06:25.861Z,99.90
2019-04-07T06:09:32.911Z,99.90
2019-04-07T06:12:39.335Z,99.90
2019-04-07T06:15:42.790Z,99.90
2019-04-07T06:18:47.746Z,99.90
2019-04-07T06:21:52.698Z,99.90
2019-04-07T06:25:00.716Z,99.90
2019-04-07T06:28:03.409Z,99.90
2019-04-07T06:31:09.278Z,99.90
2019-04-07T06:34:13.786Z,99.90
2019-04-07T06:37:18.739Z,99.90
2019-04-07T06:40:23.189Z,99.90
2019-04-07T06:43:27.622Z,99.90
2019-04-07T06:46:34.025Z,99.90
2019-04-07T06:49:47.446Z,99.90
2019-04-07T06:52:59.746Z,99.90
2019-04-07T06:56:06.392Z,99.90
2019-04-07T06:59:15.566Z,99.90
2019-04-07T07:02:29.065Z,99.90
2019-04-07T07:05:35.388Z,99.90
2019-04-07T07:08:53.034Z,99.30
2019-04-07T07:12:02.340Z,99.00
2019-04-07T07:15:21.725Z,98.80
2019-04-07T07:18:44.706Z,99.20
2019-04-07T07:22:12.714Z,99.90
2019-04-07T07:25:13.475Z,99.50
2019-04-07T07:28:18.247Z,99.90
2019-04-07T07:31:25.440Z,99.90
2019-04-07T07:34:29.464Z,99.90
2019-04-07T07:37:34.270Z,99.90
2019-04-07T07:40:38.715Z,99.60
2019-04-07T07:43:43.587Z,99.90
2019-04-07T07:46:50.415Z,99.50
2019-04-07T07:49:55.100Z,98.80
2019-04-07T07:52:59.706Z,98.60
2019-04-07T07:56:08.490Z,99.40
2019-04-07T07:59:11.078Z,99.60
2019-04-07T08:02:18.605Z,99.90
2019-04-07T08:05:22.751Z,99.90
2019-04-07T08:08:27.700Z,99.90
2019-04-07T08:11:33.835Z,99.90
2019-04-07T08:14:38.614Z,99.90
2019-04-07T08:17:43.347Z,99.90
2019-04-07T08:20:48.358Z,99.90
2019-04-07T08:23:53.561Z,99.90
2019-04-07T08:26:59.090Z,99.20
2019-04-07T08:30:11.187Z,98.80
2019-04-07T08:33:13.551Z,98.90
2019-04-07T08:36:18.304Z,98.50
2019-04-07T08:39:26.732Z,97.50
2019-04-07T08:42:28.904Z,97.10
2019-04-07T08:45:33.812Z,97.00
2019-04-07T08:48:38.812Z,96.50
2019-04-07T08:51:43.848Z,97.00
2019-04-07T08:54:51.415Z,96.40
2019-04-07T08:57:55.038Z,97.30
2019-04-07T09:00:59.615Z,97.40
2019-04-07T09:04:04.568Z,97.00
2019-04-07T09:07:09.072Z,96.50
2019-04-07T09:10:18.316Z,96.50
2019-04-07T09:13:22.482Z,96.40
2019-04-07T09:16:39.372Z,96.30
2019-04-07T09:19:46.933Z,95.40
2019-04-07T09:22:57.250Z,96.00
2019-04-07T09:26:04.184Z,96.50
2019-04-07T09:29:13.208Z,96.40
2019-04-07T09:32:22.562Z,96.90
2019-04-07T09:35:34.616Z,96.90
2019-04-07T09:38:42.120Z,96.70
2019-04-07T09:41:48.635Z,96.70
2019-04-07T09:45:02.111Z,95.80
2019-04-07T09:48:08.820Z,95.50
2019-04-07T09:51:26.909Z,96.30
2019-04-07T09:54:34.179Z,96.00
2019-04-07T09:57:57.035Z,94.90
2019-04-07T10:01:06.105Z,95.30
2019-04-07T10:04:20.523Z,94.60
2019-04-07T10:07:30.696Z,94.10
2019-04-07T10:10:45.765Z,94.40
2019-04-07T10:14:01.184Z,94.10
2019-04-07T10:17:07.648Z,95.00
2019-04-07T10:20:22.101Z,94.60
2019-04-07T10:23:43.792Z,93.10
2019-04-07T10:27:01.940Z,94.20
2019-04-07T10:30:09.974Z,93.40
2019-04-07T10:33:24.936Z,93.50
2019-04-07T10:36:49.405Z,92.10
2019-04-07T10:39:58.145Z,93.10
2019-04-07T10:43:09.645Z,92.30
2019-04-07T10:46:16.795Z,91.60
2019-04-07T10:49:38.245Z,91.40
2019-04-07T10:52:56.583Z,91.50
2019-04-07T10:56:02.740Z,91.20
2019-04-07T10:59:14.631Z,90.40
2019-04-07T11:02:23.824Z,90.40
2019-04-07T11:05:28.055Z,90.50
2019-04-07T11:08:36.582Z,87.30
2019-04-07T11:11:56.670Z,87.60
2019-04-07T11:15:12.508Z,89.90
2019-04-07T11:18:19.133Z,90.80
2019-04-07T11:21:23.798Z,91.40
2019-04-07T11:24:41.707Z,89.90
2019-04-07T11:27:50.555Z,88.40
2019-04-07T11:31:05.790Z,87.20
2019-04-07T11:34:23.937Z,85.60
2019-04-07T11:37:38.974Z,84.60
2019-04-07T11:40:49.984Z,83.00
2019-04-07T11:43:54.598Z,86.00
2019-04-07T11:47:05.033Z,86.70
2019-04-07T11:50:15.113Z,86.80
2019-04-07T11:53:21.360Z,86.70
2019-04-07T11:56:34.012Z,85.60
2019-04-07T11:59:43.697Z,85.30
2019-04-07T12:03:07.108Z,84.90
2019-04-07T12:06:25.528Z,87.00
2019-04-07T12:09:30.508Z,88.10
2019-04-07T12:12:42.487Z,88.10
2019-04-07T12:15:58.054Z,89.10
2019-04-07T12:19:04.471Z,89.60
2019-04-07T12:22:19.619Z,90.00
2019-04-07T12:25:38.449Z,88.20
2019-04-07T12:28:47.607Z,87.40
2019-04-07T12:31:56.560Z,86.10
2019-04-07T12:35:06.342Z,85.70
2019-04-07T12:38:13.482Z,86.90
2019-04-07T12:41:22.105Z,85.50
2019-04-07T12:44:34.137Z,86.20
2019-04-07T12:47:52.830Z,88.00
2019-04-07T12:51:08.429Z,85.30
2019-04-07T12:54:12.769Z,83.30
2019-04-07T12:57:38.339Z,85.20
2019-04-07T13:01:09.573Z,86.70
2019-04-07T13:04:24.382Z,86.90
2019-04-07T13:07:34.975Z,86.20
2019-04-07T13:10:48.040Z,86.70
2019-04-07T13:14:05.143Z,85.90
2019-04-07T13:17:11.596Z,86.20
2019-04-07T13:20:18.996Z,86.30
2019-04-07T13:23:26.549Z,87.60
2019-04-07T13:26:38.960Z,86.80
2019-04-07T13:29:45.524Z,85.80
2019-04-07T13:32:56.686Z,87.50
2019-04-07T13:36:02.189Z,86.60
2019-04-07T13:39:17.991Z,88.90
2019-04-07T13:42:42.827Z,90.10
2019-04-07T13:45:50.642Z,90.20
2019-04-07T13:49:00.395Z,90.40
2019-04-07T13:52:09.667Z,89.90
2019-04-07T13:55:32.309Z,90.20
2019-04-07T13:58:51.982Z,90.10
2019-04-07T14:02:01.254Z,90.60
2019-04-07T14:05:12.895Z,89.80
2019-04-07T14:08:17.019Z,90.00
2019-04-07T14:11:21.939Z,90.20
2019-04-07T14:14:30.532Z,90.20
2019-04-07T14:17:50.366Z,90.20
2019-04-07T14:21:09.417Z,90.40
2019-04-07T14:24:25.157Z,90.00
2019-04-07T14:27:40.510Z,89.70
2019-04-07T14:30:48.629Z,90.40
2019-04-07T14:33:57.626Z,90.70
2019-04-07T14:37:12.951Z,91.20
2019-04-07T14:40:19.109Z,91.00
2019-04-07T14:43:25.827Z,90.50
2019-04-07T14:46:32.638Z,90.10
2019-04-07T14:49:39.960Z,90.60
2019-04-07T14:52:54.842Z,90.60
2019-04-07T14:56:12.951Z,90.00
2019-04-07T14:59:30.696Z,90.50
2019-04-07T15:02:35.437Z,90.90
2019-04-07T15:05:48.372Z,90.90
2019-04-07T15:08:55.269Z,91.80
2019-04-07T15:12:13.606Z,91.20
2019-04-07T15:15:11.665Z,90.90
2019-04-07T15:18:15.054Z,91.00
2019-04-07T15:21:20.001Z,91.00
2019-04-07T15:24:24.728Z,90.80
2019-04-07T15:27:29.459Z,90.60
2019-04-07T15:30:33.902Z,91.30
2019-04-07T15:33:38.435Z,90.90
2019-04-07T15:36:43.940Z,91.00
2019-04-07T15:39:49.466Z,91.00
2019-04-07T15:42:54.250Z,91.70
2019-04-07T15:45:58.699Z,91.30
2019-04-07T15:49:03.790Z,91.90
2019-04-07T15:52:09.956Z,92.40
2019-04-07T15:55:15.015Z,92.20
2019-04-07T15:58:20.496Z,92.40
2019-04-07T16:01:25.074Z,92.40
2019-04-07T16:04:30.461Z,91.80
2019-04-07T16:07:35.281Z,91.40
2019-04-07T16:10:40.274Z,91.90
2019-04-07T16:13:46.211Z,91.60
2019-04-07T16:16:51.698Z,92.40
2019-04-07T16:19:56.842Z,92.90
2019-04-07T16:23:01.581Z,92.60
2019-04-07T16:26:06.645Z,93.50
2019-04-07T16:29:11.565Z,92.80
2019-04-07T16:32:15.966Z,93.30
2019-04-07T16:35:20.717Z,93.10
2019-04-07T16:38:25.430Z,92.80
2019-04-07T16:41:29.882Z,92.60
2019-04-07T16:44:37.993Z,93.00
2019-04-07T16:47:40.864Z,92.40
2019-04-07T16:50:46.269Z,92.60
2019-04-07T16:53:52.083Z,92.60
2019-04-07T16:56:58.140Z,93.10
2019-04-07T17:00:03.677Z,93.70
2019-04-07T17:03:09.958Z,93.80
2019-04-07T17:06:14.715Z,93.70
2019-04-07T17:09:24.723Z,93.50
2019-04-07T17:12:27.741Z,93.90
2019-04-07T17:15:38.188Z,94.00
2019-04-07T17:18:42.930Z,94.50
2019-04-07T17:21:47.965Z,94.70
2019-04-07T17:24:52.393Z,96.70
2019-04-07T17:28:02.225Z,97.10
2019-04-07T17:31:03.615Z,96.70
2019-04-07T17:34:10.860Z,95.60
2019-04-07T17:37:15.070Z,95.30
2019-04-07T17:40:22.592Z,96.10
2019-04-07T17:43:49.413Z,95.40
2019-04-07T17:47:06.565Z,94.80
2019-04-07T17:50:31.408Z,95.40
2019-04-07T17:53:40.132Z,95.30
2019-04-07T17:57:01.191Z,95.00
2019-04-07T18:00:18.548Z,94.70
2019-04-07T18:03:43.961Z,95.20
2019-04-07T18:06:51.320Z,94.70
2019-04-07T18:10:13.597Z,95.10
2019-04-07T18:13:39.791Z,95.00
2019-04-07T18:16:52.760Z,94.90
2019-04-07T18:20:15.824Z,94.60
2019-04-07T18:23:24.038Z,95.20
2019-04-07T18:26:46.781Z,95.20
2019-04-07T18:30:05.510Z,95.30
2019-04-07T18:33:17.583Z,95.50
2019-04-07T18:36:35.973Z,95.60
2019-04-07T18:40:01.883Z,95.90
2019-04-07T18:43:12.205Z,96.20
2019-04-07T18:46:23.694Z,96.70
2019-04-07T18:49:46.517Z,96.70
2019-04-07T18:53:04.468Z,97.20
2019-04-07T18:56:27.105Z,97.20
2019-04-07T18:59:57.834Z,97.60
2019-04-07T19:02:57.839Z,97.30
2019-04-07T19:06:08.260Z,97.50
2019-04-07T19:09:23.916Z,97.70
2019-04-07T19:12:49.047Z,97.90
2019-04-07T19:16:13.511Z,98.10
2019-04-07T19:19:34.115Z,98.30
2019-04-07T19:22:40.200Z,98.30
2019-04-07T19:25:53.749Z,98.60
2019-04-07T19:29:08.401Z,98.60
2019-04-07T19:32:31.340Z,98.70
2019-04-07T19:35:46.266Z,98.90
2019-04-07T19:38:52.672Z,98.80
2019-04-07T19:42:11.205Z,98.70
2019-04-07T19:48:50.280Z,99.00
2019-04-07T19:52:12.784Z,99.00
2019-04-07T19:55:24.938Z,99.20
2019-04-07T19:58:38.119Z,99.00
2019-04-07T20:01:46.027Z,99.20
2019-04-07T20:05:02.474Z,99.10
2019-04-07T20:08:08.560Z,99.00
2019-04-07T20:11:13.826Z,98.90
2019-04-07T20:14:26.274Z,98.90
2019-04-07T20:17:45.259Z,98.80
2019-04-07T20:21:01.130Z,98.60
2019-04-07T20:24:07.032Z,98.70
2019-04-07T20:27:29.771Z,98.70
2019-04-07T20:30:51.302Z,98.70
2019-04-07T20:34:12.612Z,98.80
2019-04-07T20:37:18.703Z,99.20
2019-04-07T20:40:25.809Z,99.20
2019-04-07T20:43:38.412Z,99.30
2019-04-07T20:46:44.866Z,99.50
2019-04-07T20:49:56.869Z,99.70
2019-04-07T20:53:12.474Z,99.70
2019-04-07T20:56:13.023Z,99.80
2019-04-07T20:59:27.064Z,99.90
2019-04-07T21:02:35.016Z,99.90
2019-04-07T21:05:58.161Z,99.90
2019-04-07T21:09:10.272Z,99.90
2019-04-07T21:12:25.333Z,99.90
2019-04-07T21:15:41.154Z,99.90
2019-04-07T21:18:45.544Z,99.90
2019-04-07T21:22:01.263Z,99.90
2019-04-07T21:25:11.927Z,99.90
2019-04-07T21:28:24.613Z,99.90
2019-04-07T21:31:28.937Z,99.90
2019-04-07T21:34:36.473Z,99.90
2019-04-07T21:37:58.893Z,99.90
2019-04-07T21:41:13.363Z,99.90
2019-04-07T21:44:28.347Z,99.90
2019-04-07T21:47:37.467Z,99.90
2019-04-07T21:50:43.451Z,99.90
2019-04-07T21:53:55.104Z,99.90
2019-04-07T21:57:02.325Z,99.90
2019-04-07T22:00:10.649Z,99.90
2019-04-07T22:03:23.610Z,99.90
2019-04-07T22:06:31.124Z,99.90
2019-04-07T22:09:51.868Z,99.90
2019-04-07T22:13:00.241Z,99.90
2019-04-07T22:16:04.217Z,99.90
2019-04-07T22:19:11.061Z,99.90
2019-04-07T22:22:14.943Z,99.90
2019-04-07T22:25:26.513Z,99.90
2019-04-07T22:28:31.735Z,99.90
2019-04-07T22:31:43.920Z,99.90
2019-04-07T22:34:47.045Z,99.90
2019-04-07T22:37:51.757Z,99.90
2019-04-07T22:40:57.078Z,99.90
2019-04-07T22:44:01.530Z,99.90
2019-04-07T22:47:07.013Z,99.90
2019-04-07T22:50:12.816Z,99.90
2019-04-07T22:53:21.297Z,99.90
2019-04-07T22:56:24.356Z,99.90
2019-04-07T22:59:28.927Z,99.90
2019-04-07T23:02:33.691Z,99.90
2019-04-07T23:05:38.123Z,99.90
2019-04-07T23:08:43.257Z,99.90
2019-04-07T23:11:48.235Z,99.90
2019-04-07T23:14:53.164Z,99.90
2019-04-07T23:17:57.965Z,99.90
2019-04-07T23:21:03.115Z,99.90
2019-04-07T23:24:07.766Z,99.90
2019-04-07T23:27:12.472Z,99.90
2019-04-07T23:30:23.609Z,99.90
2019-04-07T23:33:28.108Z,99.90
2019-04-07T23:36:32.549Z,99.90
2019-04-07T23:39:37.715Z,99.90
2019-04-07T23:42:42.241Z,99.90
2019-04-07T23:45:47.521Z,99.90
2019-04-07T23:48:52.430Z,99.90
2019-04-07T23:51:57.164Z,99.90
2019-04-07T23:55:02.450Z,99.90
2019-04-07T23:58:06.946Z,99.90
